Time;durP1;ratioP1;P1;durP2;ratioP2;P2;SDS_P1;SDS_P2;PMS_P1;PMS_P2;Temp;Humidity;BMP_temperature;BMP_pressure;BME280_temperature;BME280_humidity;BME280_pressure;Samples;Min_cycle;Max_cycle;Signal;HPM_P1;HPM_P2
2022/03/10 00:03:30;;;;;;;42.07;20.50;;;9.00;87.50;;;;;;12916722;23;20178;-81
2022/03/10 00:08:32;;;;;;;41.37;22.37;;;8.70;86.00;;;;;;12935129;23;20170;-81
2022/03/10 00:13:35;;;;;;;26.53;16.73;;;8.70;86.40;;;;;;12917737;23;20202;-81
2022/03/10 00:18:37;;;;;;;31.30;16.50;;;8.50;90.20;;;;;;12916086;23;20588;-81
2022/03/10 00:23:40;;;;;;;33.93;16.37;;;8.60;89.90;;;;;;12916954;23;20171;-80
2022/03/10 00:28:42;;;;;;;22.07;13.10;;;8.70;89.10;;;;;;12934742;23;20174;-80
2022/03/10 00:33:45;;;;;;;34.20;16.73;;;8.90;86.30;;;;;;12890483;23;20167;-80
2022/03/10 00:38:47;;;;;;;32.03;16.53;;;8.90;88.70;;;;;;12889686;23;20190;-80
2022/03/10 00:43:50;;;;;;;33.70;15.80;;;9.10;87.30;;;;;;12918684;23;20568;-81
2022/03/10 00:48:52;;;;;;;29.57;14.63;;;9.30;86.90;;;;;;12920861;23;20193;-81
2022/03/10 00:53:54;;;;;;;25.07;13.80;;;9.40;85.70;;;;;;12920287;23;20244;-80
2022/03/10 00:58:57;;;;;;;28.20;14.73;;;9.80;84.10;;;;;;12920772;23;20187;-81
2022/03/10 01:04:00;;;;;;;31.03;15.57;;;10.20;82.20;;;;;;12920458;23;20565;-81
2022/03/10 01:09:02;;;;;;;25.73;14.80;;;10.00;83.00;;;;;;12920703;23;20172;-81
2022/03/10 01:14:05;;;;;;;24.40;14.83;;;10.30;81.00;;;;;;12920241;23;20230;-81
2022/03/10 01:19:09;;;;;;;26.27;14.20;;;10.30;81.60;;;;;;12920419;23;20184;-81
2022/03/10 01:24:12;;;;;;;25.00;14.17;;;10.80;80.10;;;;;;12893414;23;20508;-80
2022/03/10 01:29:14;;;;;;;23.87;14.13;;;10.60;79.40;;;;;;12919661;23;20509;-81
2022/03/10 01:34:17;;;;;;;25.60;14.30;;;10.50;80.20;;;;;;12920011;23;20685;-81
2022/03/10 01:39:19;;;;;;;24.87;14.07;;;10.50;78.90;;;;;;12919676;23;20193;-81
2022/03/10 01:44:22;;;;;;;25.53;14.53;;;9.90;81.30;;;;;;12919510;23;20171;-81
2022/03/10 01:49:24;;;;;;;22.93;13.67;;;9.70;83.10;;;;;;12891660;23;20175;-81
2022/03/10 01:54:27;;;;;;;22.83;12.50;;;8.40;85.90;;;;;;12925863;23;20191;-81
2022/03/10 01:59:30;;;;;;;25.70;14.93;;;8.50;89.50;;;;;;12919151;23;20192;-81
2022/03/10 02:04:33;;;;;;;27.37;14.17;;;7.90;88.00;;;;;;12919423;23;20167;-81
2022/03/10 02:20:32;;;;;;;23.00;12.40;;;9.10;87.80;;;;;;12892293;23;20171;-81
2022/03/10 02:25:36;;;;;;;22.80;12.97;;;9.70;84.50;;;;;;12917995;23;20174;-81
2022/03/10 02:30:39;;;;;;;23.67;13.13;;;10.30;82.50;;;;;;12891585;23;20172;-81
2022/03/10 02:35:41;;;;;;;22.40;13.50;;;10.30;81.80;;;;;;12890898;23;20203;-80
2022/03/10 02:40:46;;;;;;;21.13;13.97;;;9.30;81.30;;;;;;12937543;23;20547;-81
2022/03/10 02:45:49;;;;;;;21.57;14.00;;;7.20;87.00;;;;;;12891704;23;20570;-81
2022/03/10 02:50:51;;;;;;;23.23;13.70;;;7.40;92.40;;;;;;12918757;23;20637;-81
2022/03/10 02:55:54;;;;;;;23.00;13.30;;;8.60;89.30;;;;;;12891330;23;20573;-81
2022/03/10 03:00:56;;;;;;;16.30;10.30;;;9.80;84.10;;;;;;12927280;23;20171;-81
2022/03/10 03:05:59;;;;;;;19.40;11.27;;;10.50;80.50;;;;;;12934438;23;20253;-81
2022/03/10 03:11:01;;;;;;;20.27;11.43;;;10.80;80.40;;;;;;12917748;23;20560;-81
2022/03/10 03:16:04;;;;;;;17.10;11.23;;;11.20;78.10;;;;;;12917642;23;20184;-81
2022/03/10 03:21:07;;;;;;;16.53;11.93;;;10.90;74.30;;;;;;12917483;23;20168;-81
2022/03/10 03:26:09;;;;;;;20.87;13.53;;;8.30;77.10;;;;;;12889146;23;20174;-81
2022/03/10 03:31:12;;;;;;;18.53;10.50;;;6.90;80.00;;;;;;12890847;23;20174;-81
2022/03/10 03:36:14;;;;;;;18.70;11.47;;;5.80;85.70;;;;;;12890550;23;20529;-81
2022/03/10 03:41:17;;;;;;;19.47;10.67;;;4.70;97.20;;;;;;12890196;23;20162;-81
2022/03/10 03:46:20;;;;;;;15.70;10.20;;;6.80;94.90;;;;;;12917202;23;20493;-81
2022/03/10 03:51:23;;;;;;;16.50;10.37;;;8.50;90.70;;;;;;12917780;23;20171;-80
2022/03/10 03:56:25;;;;;;;18.30;10.67;;;7.70;91.10;;;;;;12934663;23;20194;-81
2022/03/10 04:01:28;;;;;;;18.30;11.20;;;7.00;88.80;;;;;;12916639;23;20186;-81
2022/03/10 04:06:31;;;;;;;15.33;8.20;;;7.00;92.70;;;;;;12917197;23;20170;-81
2022/03/10 04:11:33;;;;;;;18.53;13.10;;;10.10;83.70;;;;;;12865592;23;20508;-80
2022/03/10 04:16:36;;;;;;;18.40;13.43;;;10.40;81.30;;;;;;12922597;23;20569;-81
2022/03/10 04:21:39;;;;;;;15.17;9.67;;;10.40;79.10;;;;;;12916504;23;20517;-81
2022/03/10 04:26:42;;;;;;;20.07;11.10;;;10.20;79.10;;;;;;12916292;23;20250;-81
2022/03/10 04:31:44;;;;;;;15.37;9.90;;;10.40;79.50;;;;;;12916441;23;20197;-80
2022/03/10 04:36:47;;;;;;;14.10;9.00;;;9.70;79.80;;;;;;12889397;23;20182;-81
2022/03/10 04:41:51;;;;;;;16.50;9.93;;;9.60;82.60;;;;;;12935004;23;20159;-81
2022/03/10 04:46:53;;;;;;;14.80;8.80;;;11.00;76.30;;;;;;12916158;23;20175;-80
2022/03/10 04:51:57;;;;;;;15.13;10.40;;;11.00;74.40;;;;;;12915485;23;20250;-81
2022/03/10 04:57:02;;;;;;;15.57;9.57;;;10.20;71.50;;;;;;12906419;23;20576;-81
2022/03/10 05:02:05;;;;;;;17.00;10.17;;;11.30;75.60;;;;;;12889211;23;20225;-80
2022/03/10 05:07:08;;;;;;;24.20;12.27;;;10.80;74.50;;;;;;12916038;23;20197;-81
2022/03/10 05:12:10;;;;;;;12.37;8.30;;;11.00;70.60;;;;;;12888978;23;20516;-81
2022/03/10 05:17:13;;;;;;;13.60;8.77;;;10.80;76.70;;;;;;12888096;23;20187;-81
2022/03/10 05:22:16;;;;;;;13.63;7.93;;;11.40;74.30;;;;;;12889662;23;20705;-80
2022/03/10 05:27:18;;;;;;;11.60;8.90;;;11.50;74.70;;;;;;12888780;23;20509;-81
2022/03/10 05:32:21;;;;;;;10.97;7.60;;;10.90;75.80;;;;;;12918689;23;20515;-81
2022/03/10 05:37:24;;;;;;;13.27;8.47;;;10.80;76.00;;;;;;12920996;23;20558;-80
2022/03/10 05:42:27;;;;;;;10.57;7.60;;;10.90;73.40;;;;;;12919350;23;20505;-81
2022/03/10 05:47:29;;;;;;;21.07;14.03;;;11.40;74.60;;;;;;12890275;23;20184;-81
2022/03/10 05:52:32;;;;;;;10.90;7.53;;;11.20;67.90;;;;;;12889973;23;20196;-83
2022/03/10 05:57:35;;;;;;;11.30;8.30;;;11.50;73.40;;;;;;12919456;23;20187;-84
2022/03/10 06:02:38;;;;;;;13.70;8.63;;;11.70;72.80;;;;;;12916714;23;20705;-81
2022/03/10 06:07:41;;;;;;;12.00;8.00;;;11.00;72.30;;;;;;12918549;23;20166;-81
2022/03/10 06:12:45;;;;;;;10.97;7.77;;;11.20;74.30;;;;;;12867548;23;20631;-81
2022/03/10 06:17:47;;;;;;;12.10;7.90;;;10.90;75.40;;;;;;12918553;23;20234;-81
2022/03/10 06:22:50;;;;;;;11.83;8.47;;;11.40;72.10;;;;;;12918510;23;20164;-81
2022/03/10 06:27:54;;;;;;;11.07;7.77;;;11.80;71.50;;;;;;12893013;23;20214;-82
2022/03/10 06:32:57;;;;;;;12.67;7.03;;;11.50;68.20;;;;;;12866170;23;20185;-82
2022/03/10 06:38:00;;;;;;;11.47;7.00;;;11.50;71.20;;;;;;12891689;23;20586;-82
2022/03/10 06:43:03;;;;;;;13.17;7.90;;;11.10;70.40;;;;;;12890722;23;20569;-83
2022/03/10 06:48:06;;;;;;;10.83;7.20;;;11.40;71.60;;;;;;12891349;23;20241;-84
2022/03/10 06:53:09;;;;;;;12.33;7.50;;;10.50;67.00;;;;;;12930266;23;20192;-86
2022/03/10 06:58:11;;;;;;;16.03;7.53;;;10.50;64.20;;;;;;12917321;23;20191;-81
2022/03/10 07:03:14;;;;;;;14.77;8.13;;;11.20;64.40;;;;;;12917911;23;20224;-79
2022/03/10 07:08:16;;;;;;;10.93;6.57;;;10.40;64.10;;;;;;12936468;23;20171;-79
2022/03/10 07:13:20;;;;;;;10.53;6.17;;;10.90;62.70;;;;;;12918158;23;20633;-80
2022/03/10 07:18:22;;;;;;;9.87;5.70;;;11.10;62.10;;;;;;12916972;23;20195;-83
2022/03/10 07:23:28;;;;;;;8.00;5.00;;;10.70;63.40;;;;;;12935363;23;20663;-81
2022/03/10 07:28:31;;;;;;;9.23;6.93;;;11.20;62.60;;;;;;12889202;23;20181;-81
2022/03/10 07:33:34;;;;;;;7.40;5.03;;;10.30;62.70;;;;;;12888508;23;20711;-81
2022/03/10 07:38:37;;;;;;;7.53;4.20;;;10.60;64.10;;;;;;12889557;23;20193;-81
2022/03/10 07:43:40;;;;;;;11.03;7.13;;;11.00;63.20;;;;;;12889065;23;20190;-80
2022/03/10 07:48:42;;;;;;;8.40;4.93;;;11.40;59.20;;;;;;12863344;23;20210;-80
2022/03/10 07:53:45;;;;;;;5.97;4.17;;;11.10;62.70;;;;;;12914417;23;20576;-80
2022/03/10 07:58:47;;;;;;;7.80;5.37;;;11.60;62.10;;;;;;12863470;23;20253;-80
2022/03/10 08:03:50;;;;;;;5.27;3.90;;;11.20;61.50;;;;;;12916671;23;20538;-82
2022/03/10 08:08:52;;;;;;;4.70;3.63;;;10.50;64.40;;;;;;12917594;23;20206;-82
2022/03/10 08:13:55;;;;;;;7.90;4.57;;;11.70;63.20;;;;;;12917476;23;20206;-81
2022/03/10 08:18:58;;;;;;;6.20;3.90;;;11.70;63.40;;;;;;12907787;23;20188;-82
2022/03/10 08:24:00;;;;;;;5.60;3.47;;;11.80;62.20;;;;;;12917430;23;20164;-81
2022/03/10 08:29:04;;;;;;;7.47;4.53;;;11.90;62.50;;;;;;12917317;23;20594;-81
2022/03/10 08:34:06;;;;;;;6.07;4.50;;;11.70;58.90;;;;;;12890047;23;20211;-82
2022/03/10 08:39:09;;;;;;;11.27;6.23;;;11.70;63.10;;;;;;12917221;23;20217;-81
2022/03/10 08:44:12;;;;;;;6.33;4.57;;;6.90;59.80;;;;;;12917241;23;20230;-81
2022/03/10 08:49:17;;;;;;;5.83;4.30;;;7.50;83.90;;;;;;12934758;23;20480;-81
2022/03/10 08:54:19;;;;;;;5.63;3.80;;;11.10;68.70;;;;;;12864463;23;20206;-81
2022/03/10 08:59:22;;;;;;;10.93;4.93;;;12.10;66.90;;;;;;12887249;23;20182;-82
2022/03/10 09:04:26;;;;;;;9.00;3.70;;;11.60;60.50;;;;;;12913560;23;20167;-81
2022/03/10 09:09:28;;;;;;;5.53;3.30;;;11.70;66.30;;;;;;12915523;23;20462;-81
2022/03/10 09:14:31;;;;;;;6.43;3.67;;;11.80;65.50;;;;;;12933409;23;20175;-80
2022/03/10 09:19:34;;;;;;;6.53;3.77;;;12.10;64.50;;;;;;12916644;23;20192;-80
2022/03/10 09:24:37;;;;;;;7.00;4.50;;;12.20;64.70;;;;;;12888395;23;20235;-80
2022/03/10 09:29:39;;;;;;;4.43;3.43;;;12.10;60.70;;;;;;12887925;23;20751;-81
2022/03/10 09:34:42;;;;;;;6.57;3.80;;;12.10;64.70;;;;;;12915674;23;20174;-80
2022/03/10 09:39:44;;;;;;;5.53;4.17;;;11.60;63.30;;;;;;12890689;23;20195;-80
2022/03/10 09:44:49;;;;;;;5.97;4.17;;;12.10;56.60;;;;;;12915660;23;20197;-81
2022/03/10 09:49:55;;;;;;;4.47;2.77;;;12.20;60.40;;;;;;12915635;23;20167;-80
2022/03/10 09:54:59;;;;;;;5.67;4.43;;;12.50;62.50;;;;;;12889284;23;20192;-80
2022/03/10 10:00:02;;;;;;;4.47;3.77;;;11.80;54.30;;;;;;12863676;23;20872;-79
2022/03/10 10:05:19;;;;;;;7.87;5.27;;;11.30;64.20;;;;;;12935255;23;20330;-79
2022/03/10 10:10:29;;;;;;;4.33;3.27;;;12.20;63.00;;;;;;12913956;23;20171;-80
2022/03/10 10:15:43;;;;;;;10.07;5.00;;;12.20;63.00;;;;;;12914145;23;20181;-80
2022/03/10 10:20:51;;;;;;;4.93;3.40;;;11.90;61.30;;;;;;12888789;23;20731;-80
2022/03/10 10:25:56;;;;;;;4.83;3.83;;;12.30;63.10;;;;;;12907628;23;20245;-79
2022/03/10 10:31:07;;;;;;;6.30;4.33;;;12.30;62.80;;;;;;12887680;23;20257;-81
2022/03/10 10:36:28;;;;;;;8.73;5.63;;;11.70;64.00;;;;;;12904916;23;20169;-80
2022/03/10 10:41:31;;;;;;;4.70;3.40;;;11.90;55.80;;;;;;12905102;23;20191;-81
2022/03/10 10:46:35;;;;;;;8.87;5.63;;;12.40;63.10;;;;;;12914647;23;20170;-81
2022/03/10 10:51:41;;;;;;;5.60;3.83;;;11.80;59.70;;;;;;12887373;23;20226;-81
2022/03/10 10:57:06;;;;;;;4.77;3.40;;;12.10;62.60;;;;;;12887098;23;20175;-80
2022/03/10 11:02:16;;;;;;;4.97;3.13;;;12.10;60.70;;;;;;12921616;23;20172;-81
2022/03/10 11:07:21;;;;;;;7.57;4.70;;;12.40;62.30;;;;;;12905396;23;20172;-81
2022/03/10 11:12:23;;;;;;;4.33;3.07;;;12.20;60.70;;;;;;12914484;23;20490;-81
2022/03/10 11:17:27;;;;;;;9.27;5.13;;;11.80;62.40;;;;;;12914017;23;20243;-80
2022/03/10 11:22:56;;;;;;;9.00;6.37;;;11.60;58.50;;;;;;12890791;23;20201;-81
2022/03/10 11:28:28;;;;;;;7.20;4.60;;;12.10;52.00;;;;;;12857082;23;20183;-80
2022/03/10 11:33:36;;;;;;;3.67;3.10;;;11.90;55.70;;;;;;12889330;23;20181;-81
2022/03/10 11:39:20;;;;;;;9.30;5.27;;;10.80;65.80;;;;;;12934484;23;20495;-81
2022/03/10 11:44:36;;;;;;;10.87;6.47;;;11.40;63.40;;;;;;12889360;23;20553;-80
2022/03/10 11:49:41;;;;;;;9.13;6.13;;;10.90;53.30;;;;;;12917362;23;20172;-81
2022/03/10 11:55:02;;;;;;;4.40;3.10;;;11.40;55.90;;;;;;12888784;23;20264;-81
2022/03/10 12:00:05;;;;;;;10.30;6.03;;;12.10;63.20;;;;;;12933365;23;20190;-81
2022/03/10 12:05:14;;;;;;;5.63;4.37;;;11.70;49.10;;;;;;12937378;23;20221;-81
2022/03/10 12:10:17;;;;;;;5.07;3.60;;;11.80;61.40;;;;;;12863128;23;20225;-81
2022/03/10 12:15:29;;;;;;;11.00;4.67;;;11.70;63.00;;;;;;12889232;23;20564;-81
2022/03/10 12:20:40;;;;;;;4.47;3.80;;;11.90;60.40;;;;;;12934133;23;20192;-80
2022/03/10 12:25:44;;;;;;;3.67;3.17;;;11.90;57.80;;;;;;12933074;23;20478;-81
2022/03/10 12:30:47;;;;;;;6.63;4.10;;;12.20;62.80;;;;;;12915854;23;20223;-81
2022/03/10 12:35:58;;;;;;;5.47;2.87;;;12.20;61.10;;;;;;12915190;23;20169;-80
2022/03/10 12:41:01;;;;;;;5.73;4.37;;;12.30;60.00;;;;;;12938328;23;20498;-81
2022/03/10 12:46:04;;;;;;;3.97;3.33;;;12.30;56.50;;;;;;12894332;23;20237;-81
2022/03/10 12:51:30;;;;;;;5.70;3.67;;;12.40;61.20;;;;;;12895192;23;20207;-80
2022/03/10 12:57:08;;;;;;;9.13;5.10;;;12.50;58.10;;;;;;12941190;23;20199;-82
2022/03/10 13:02:17;;;;;;;11.43;6.33;;;12.00;56.90;;;;;;12669783;23;20729;-82
2022/03/10 13:07:22;;;;;;;5.70;4.50;;;11.20;49.10;;;;;;12643878;23;20177;-81
2022/03/10 13:12:52;;;;;;;7.10;4.50;;;11.70;60.60;;;;;;12668426;23;20176;-82
2022/03/10 13:18:06;;;;;;;3.47;2.63;;;11.90;56.50;;;;;;12642760;23;20245;-81
2022/03/10 13:23:11;;;;;;;7.23;4.37;;;12.50;57.30;;;;;;12643609;23;20206;-81
2022/03/10 13:28:15;;;;;;;3.33;3.00;;;11.90;61.40;;;;;;12645298;23;20568;-82
2022/03/10 13:33:20;;;;;;;4.20;2.90;;;12.00;61.50;;;;;;12643604;23;20250;-81
2022/03/10 13:38:26;;;;;;;4.73;3.20;;;12.30;62.40;;;;;;12864457;23;20809;-81
2022/03/10 13:43:36;;;;;;;4.57;3.93;;;12.70;62.10;;;;;;12937912;23;20501;-82
2022/03/10 13:48:51;;;;;;;5.23;3.77;;;12.60;60.50;;;;;;12896885;23;20176;-86
2022/03/10 13:54:01;;;;;;;4.33;3.23;;;12.50;60.60;;;;;;12917340;23;20528;-85
2022/03/10 13:59:09;;;;;;;5.90;3.83;;;12.80;58.50;;;;;;12867291;23;20536;-81
2022/03/10 14:04:19;;;;;;;4.07;2.83;;;12.50;61.00;;;;;;12918367;23;20196;-81
2022/03/10 14:09:24;;;;;;;3.60;2.73;;;12.70;56.20;;;;;;12891518;23;20564;-80
2022/03/10 14:14:34;;;;;;;4.73;3.63;;;13.00;60.10;;;;;;12892063;23;20706;-80
2022/03/10 14:19:37;;;;;;;4.93;3.20;;;12.60;58.60;;;;;;12936438;23;20268;-80
2022/03/10 14:24:39;;;;;;;4.27;3.17;;;12.70;61.30;;;;;;12913879;23;20169;-82
2022/03/10 14:29:49;;;;;;;3.43;2.80;;;12.90;60.60;;;;;;12914166;23;20178;-81
2022/03/10 14:34:52;;;;;;;4.13;2.40;;;13.00;60.60;;;;;;12929133;23;20558;-82
2022/03/10 14:39:55;;;;;;;5.90;2.77;;;13.30;60.00;;;;;;12885683;23;20584;-81
2022/03/10 14:44:57;;;;;;;3.80;3.00;;;13.20;59.30;;;;;;12886199;23;20222;-81
2022/03/10 14:50:00;;;;;;;5.73;3.80;;;13.40;54.40;;;;;;12914919;23;20168;-81
2022/03/10 14:55:02;;;;;;;7.40;4.73;;;13.30;55.40;;;;;;12887276;23;20207;-81
2022/03/10 15:00:09;;;;;;;5.10;3.63;;;12.10;57.30;;;;;;12917401;23;20253;-85
2022/03/10 15:05:13;;;;;;;3.00;2.23;;;12.90;58.70;;;;;;12890652;23;20562;-80
2022/03/10 15:10:18;;;;;;;8.27;6.03;;;13.20;59.70;;;;;;12891353;23;20708;-81
2022/03/10 15:15:21;;;;;;;4.57;2.50;;;12.80;48.00;;;;;;12865003;23;20184;-79
2022/03/10 15:20:23;;;;;;;6.83;2.90;;;13.20;59.70;;;;;;12918455;23;20192;-79
2022/03/10 15:25:28;;;;;;;5.40;4.40;;;13.10;59.30;;;;;;12890318;23;20564;-82
2022/03/10 15:30:31;;;;;;;5.97;3.20;;;12.60;55.90;;;;;;12916899;23;20204;-80
2022/03/10 15:35:33;;;;;;;6.70;3.97;;;12.90;59.40;;;;;;12891902;23;20227;-80
2022/03/10 15:40:36;;;;;;;5.47;3.90;;;12.90;54.50;;;;;;12936264;23;20191;-81
2022/03/10 15:45:39;;;;;;;4.33;2.93;;;12.70;57.90;;;;;;12891211;23;20174;-80
2022/03/10 15:50:43;;;;;;;16.97;6.40;;;12.90;59.90;;;;;;12917669;23;20203;-80
2022/03/10 15:55:46;;;;;;;4.40;3.40;;;12.30;56.50;;;;;;12919418;23;20196;-79
2022/03/10 16:00:50;;;;;;;5.20;3.53;;;12.10;60.50;;;;;;12905345;23;20226;-80
2022/03/10 16:05:53;;;;;;;3.63;2.57;;;11.80;60.40;;;;;;12917022;23;20168;-80
2022/03/10 16:10:56;;;;;;;5.50;4.20;;;12.10;61.90;;;;;;12890213;23;20171;-79
2022/03/10 16:16:00;;;;;;;3.80;2.90;;;11.80;57.10;;;;;;12890199;23;20185;-80
2022/03/10 16:21:03;;;;;;;5.57;3.17;;;12.20;62.20;;;;;;12891313;23;20238;-80
2022/03/10 16:26:25;;;;;;;5.87;4.07;;;10.70;65.60;;;;;;12918373;23;20507;-80
2022/03/10 16:31:28;;;;;;;11.33;6.87;;;11.00;56.10;;;;;;12918292;23;20244;-80
2022/03/10 16:36:30;;;;;;;5.43;3.50;;;8.40;48.20;;;;;;12918682;23;20212;-80
2022/03/10 16:41:36;;;;;;;6.00;3.47;;;5.80;81.20;;;;;;12866935;23;20255;-80
2022/03/10 16:46:42;;;;;;;7.37;4.07;;;8.90;74.20;;;;;;12918574;23;20200;-80
2022/03/10 16:51:46;;;;;;;5.17;3.10;;;6.70;76.80;;;;;;12917154;23;20229;-79
2022/03/10 16:56:49;;;;;;;4.07;3.37;;;10.00;73.20;;;;;;12889773;23;20571;-80
2022/03/10 17:01:53;;;;;;;5.50;3.77;;;11.50;64.40;;;;;;12915879;23;20191;-79
2022/03/10 17:06:56;;;;;;;3.50;3.10;;;12.20;65.40;;;;;;12890287;23;20172;-81
2022/03/10 17:11:58;;;;;;;12.80;7.23;;;12.30;64.60;;;;;;12916625;23;20570;-79
2022/03/10 17:17:02;;;;;;;11.83;6.23;;;11.60;52.60;;;;;;12917203;23;20170;-79
2022/03/10 17:22:05;;;;;;;13.27;6.20;;;6.70;65.60;;;;;;12891306;23;20190;-79
2022/03/10 17:27:08;;;;;;;12.97;5.57;;;9.10;64.60;;;;;;12921218;23;20550;-79
2022/03/10 17:32:20;;;;;;;15.47;6.97;;;10.40;60.10;;;;;;12930450;23;20898;-79
2022/03/10 17:37:23;;;;;;;16.07;6.40;;;10.70;57.40;;;;;;12921501;23;20207;-79
2022/03/10 17:42:26;;;;;;;10.97;6.93;;;10.80;58.10;;;;;;12895105;23;20551;-78
2022/03/10 17:47:29;;;;;;;10.57;7.07;;;11.20;58.70;;;;;;12921373;23;20223;-79
2022/03/10 17:52:31;;;;;;;21.40;9.73;;;11.30;56.30;;;;;;12922848;23;20529;-79
2022/03/10 17:57:34;;;;;;;34.37;10.80;;;11.60;54.70;;;;;;12921871;23;20173;-78
2022/03/10 18:02:36;;;;;;;26.10;10.60;;;11.50;50.10;;;;;;12902709;23;20223;-78
2022/03/10 18:07:40;;;;;;;23.97;10.77;;;11.00;50.20;;;;;;12922109;23;20214;-78
2022/03/10 18:12:45;;;;;;;21.27;10.37;;;10.70;51.30;;;;;;12913110;23;20173;-78
2022/03/10 18:17:48;;;;;;;22.97;11.10;;;10.00;53.20;;;;;;12923373;23;20559;-79
2022/03/10 18:22:51;;;;;;;19.33;7.93;;;9.30;54.50;;;;;;12898346;23;20533;-78
2022/03/10 18:27:53;;;;;;;24.63;12.47;;;9.30;57.30;;;;;;12899192;23;20478;-78
2022/03/10 18:32:55;;;;;;;19.20;10.97;;;9.50;52.90;;;;;;12898863;23;20556;-79
2022/03/10 18:37:59;;;;;;;20.80;8.97;;;9.30;55.80;;;;;;12933323;23;20190;-83
2022/03/10 18:43:03;;;;;;;25.57;14.30;;;9.50;57.80;;;;;;12931160;23;20192;-80
2022/03/10 18:48:06;;;;;;;14.73;7.50;;;5.20;54.40;;;;;;12922526;23;20212;-80
2022/03/10 18:53:08;;;;;;;17.97;7.70;;;7.40;69.60;;;;;;12919019;23;20194;-80
2022/03/10 18:58:13;;;;;;;17.03;8.53;;;9.10;66.00;;;;;;12914097;23;20203;-79
2022/03/10 19:03:16;;;;;;;16.43;8.93;;;9.40;63.60;;;;;;12889716;23;20222;-77
2022/03/10 19:08:18;;;;;;;15.83;7.60;;;10.00;62.20;;;;;;12917779;23;20502;-78
2022/03/10 19:13:21;;;;;;;12.83;7.60;;;10.40;61.50;;;;;;12912917;23;20171;-77
2022/03/10 19:18:23;;;;;;;15.10;8.23;;;10.20;59.30;;;;;;12887717;23;20245;-78
2022/03/10 19:23:26;;;;;;;11.23;7.17;;;10.30;59.60;;;;;;12918329;23;20196;-78
2022/03/10 19:28:28;;;;;;;27.63;16.77;;;10.20;62.30;;;;;;12868625;23;20173;-78
2022/03/10 19:33:31;;;;;;;38.20;17.70;;;8.90;49.00;;;;;;12919897;23;20174;-78
2022/03/10 19:38:34;;;;;;;35.03;17.17;;;1.10;65.70;;;;;;12896311;23;20166;-80
2022/03/10 19:43:36;;;;;;;28.67;11.27;;;4.90;63.00;;;;;;12893204;23;20186;-77
2022/03/10 19:48:39;;;;;;;19.77;8.80;;;5.10;99.90;;;;;;12891360;23;20242;-77
2022/03/10 19:53:42;;;;;;;32.67;15.23;;;8.00;95.50;;;;;;12892011;23;20512;-77
2022/03/10 19:58:45;;;;;;;30.37;16.03;;;1.50;68.90;;;;;;12917649;23;20174;-76
2022/03/10 20:03:49;;;;;;;32.23;16.30;;;-0.10;76.20;;;;;;12891109;23;20177;-76
2022/03/10 20:08:53;;;;;;;34.57;16.33;;;-0.50;78.30;;;;;;12917581;23;20167;-76
2022/03/10 20:13:55;;;;;;;34.73;14.87;;;-0.90;80.30;;;;;;12891190;23;20504;-76
2022/03/10 20:18:58;;;;;;;31.37;14.40;;;-0.50;83.40;;;;;;12865448;23;20206;-76
2022/03/10 20:24:00;;;;;;;22.90;12.27;;;4.40;99.90;;;;;;12890140;23;20174;-77
2022/03/10 20:29:03;;;;;;;31.63;11.30;;;7.20;91.80;;;;;;12891482;23;20216;-77
2022/03/10 20:34:06;;;;;;;29.13;10.27;;;3.60;99.90;;;;;;12891272;23;20225;-77
2022/03/10 20:39:08;;;;;;;25.73;10.33;;;4.70;99.90;;;;;;12935693;23;20216;-77
2022/03/10 20:44:11;;;;;;;18.33;8.93;;;8.60;99.90;;;;;;12890269;23;20170;-77
2022/03/10 20:49:14;;;;;;;27.17;11.87;;;9.80;93.00;;;;;;12864548;23;20178;-81
2022/03/10 20:54:16;;;;;;;26.40;10.80;;;10.70;86.50;;;;;;12917050;23;20190;-80
2022/03/10 20:59:19;;;;;;;20.17;8.10;;;10.50;83.50;;;;;;12865180;22;20187;-78
2022/03/10 21:04:21;;;;;;;21.20;11.00;;;11.40;84.40;;;;;;12893329;23;20167;-78
2022/03/10 21:09:24;;;;;;;18.70;8.07;;;11.40;80.10;;;;;;12894319;23;20169;-78
2022/03/10 21:14:28;;;;;;;15.53;8.20;;;11.50;80.00;;;;;;12894121;23;20560;-77
2022/03/10 21:19:30;;;;;;;19.17;10.27;;;11.80;78.80;;;;;;12893144;23;20196;-77
2022/03/10 21:24:33;;;;;;;19.53;11.00;;;11.80;72.10;;;;;;12937679;23;20201;-78
2022/03/10 21:29:36;;;;;;;15.50;7.97;;;11.70;71.40;;;;;;12895150;23;20200;-77
2022/03/10 21:34:38;;;;;;;20.07;10.23;;;11.90;75.90;;;;;;12894094;23;20181;-77
2022/03/10 21:39:41;;;;;;;20.57;8.57;;;11.90;69.40;;;;;;12894121;23;20642;-77
2022/03/10 21:44:44;;;;;;;20.97;8.60;;;11.90;73.70;;;;;;12892767;23;20177;-77
2022/03/10 21:49:46;;;;;;;19.93;8.97;;;12.40;72.10;;;;;;12892277;23;20718;-80
2022/03/10 21:54:52;;;;;;;27.43;11.70;;;12.30;67.40;;;;;;12918869;23;20197;-79
2022/03/10 21:59:54;;;;;;;15.87;8.50;;;12.20;70.40;;;;;;12919619;23;20996;-80
2022/03/10 22:04:57;;;;;;;15.93;8.57;;;12.30;70.60;;;;;;12937107;23;20165;-80
2022/03/10 22:09:59;;;;;;;18.53;9.33;;;12.40;69.80;;;;;;12893110;23;20718;-78
2022/03/10 22:15:02;;;;;;;19.27;9.10;;;12.30;69.20;;;;;;12918804;23;20505;-78
2022/03/10 22:20:05;;;;;;;18.73;10.17;;;12.20;69.30;;;;;;12919816;23;20235;-78
2022/03/10 22:25:08;;;;;;;20.30;9.53;;;11.90;65.00;;;;;;12893032;23;20701;-78
2022/03/10 22:30:10;;;;;;;19.87;9.10;;;11.50;69.60;;;;;;12919214;23;20177;-79
2022/03/10 22:35:13;;;;;;;21.47;10.10;;;11.90;68.60;;;;;;12919278;23;20169;-78
2022/03/10 22:40:16;;;;;;;16.83;8.73;;;11.20;67.70;;;;;;12892510;23;20283;-78
2022/03/10 22:45:19;;;;;;;12.67;7.00;;;11.90;68.10;;;;;;12892543;23;20227;-79
2022/03/10 22:55:43;;;;;;;14.97;8.20;;;12.30;67.30;;;;;;12919581;23;20247;-79
2022/03/10 23:00:47;;;;;;;22.37;8.83;;;12.20;66.40;;;;;;12934097;23;20216;-78
2022/03/10 23:11:10;;;;;;;14.43;8.47;;;12.60;65.40;;;;;;12937622;23;20166;-77
2022/03/10 23:16:13;;;;;;;20.33;9.07;;;12.70;63.60;;;;;;12918887;23;20200;-77
2022/03/10 23:21:16;;;;;;;22.87;11.90;;;12.40;63.80;;;;;;12891657;23;20561;-77
2022/03/10 23:26:18;;;;;;;12.83;7.13;;;12.20;57.00;;;;;;12918128;23;20483;-78
2022/03/10 23:31:20;;;;;;;12.67;7.07;;;12.10;63.70;;;;;;12917463;23;20219;-77
2022/03/10 23:36:23;;;;;;;16.00;8.10;;;12.00;65.60;;;;;;12891371;23;20173;-77
2022/03/10 23:41:26;;;;;;;14.10;8.60;;;12.20;65.10;;;;;;12917904;23;20188;-77
2022/03/10 23:46:30;;;;;;;17.03;8.33;;;11.90;65.60;;;;;;12917872;23;20170;-77
2022/03/10 23:51:33;;;;;;;12.63;7.50;;;12.00;64.60;;;;;;12889788;23;20292;-77
2022/03/10 23:56:35;;;;;;;17.07;8.70;;;12.20;64.80;;;;;;12916569;23;20173;-78
